Time;durP1;ratioP1;P1;durP2;ratioP2;P2;SDS_P1;SDS_P2;PMS_P1;PMS_P2;Temp;Humidity;BMP_temperature;BMP_pressure;BME280_temperature;BME280_humidity;BME280_pressure;Samples;Min_cycle;Max_cycle;Signal;HPM_P1;HPM_P2
2023/07/22 04:02:58;;;;;;;;;;;13.80;99.90;;;;;;4955765;29;20017;-76
2023/07/22 04:05:23;;;;;;;;;;;13.80;99.90;;;;;;4957486;29;20017;-74
2023/07/22 04:07:49;;;;;;;;;;;13.70;99.90;;;;;;4956967;29;20286;-74
2023/07/22 04:10:14;;;;;;;;;;;13.70;99.90;;;;;;4957409;29;19918;-74
2023/07/22 04:12:40;;;;;;;;;;;13.70;99.90;;;;;;4958044;28;19918;-73
2023/07/22 04:15:06;;;;;;;;;;;13.80;99.90;;;;;;4958117;28;19918;-75
2023/07/22 04:17:32;;;;;;;;;;;13.70;99.90;;;;;;4958276;28;19925;-75
2023/07/22 04:19:57;;;;;;;;;;;13.70;99.90;;;;;;4956723;29;19965;-74
2023/07/22 04:22:23;;;;;;;;;;;13.70;99.90;;;;;;4956711;29;19922;-73
2023/07/22 04:24:48;;;;;;;;;;;13.70;99.90;;;;;;4956917;29;19919;-74
2023/07/22 04:27:15;;;;;;;;;;;13.70;99.90;;;;;;4956682;29;19918;-74
2023/07/22 04:29:41;;;;;;;;;;;13.70;99.90;;;;;;4957904;28;20321;-75
2023/07/22 04:32:08;;;;;;;;;;;13.70;99.90;;;;;;4957037;29;19942;-75
2023/07/22 04:34:34;;;;;;;;;;;13.80;99.90;;;;;;4956533;29;19941;-75
2023/07/22 04:36:59;;;;;;;;;;;13.80;99.90;;;;;;4957175;29;19919;-75
2023/07/22 04:39:25;;;;;;;;;;;13.80;99.90;;;;;;4956456;29;19946;-74
2023/07/22 04:41:51;;;;;;;;;;;13.80;99.90;;;;;;4957500;28;20018;-75
2023/07/22 04:44:17;;;;;;;;;;;13.80;99.90;;;;;;4956457;29;19961;-75
2023/07/22 04:46:43;;;;;;;;;;;13.80;99.90;;;;;;4957651;28;19923;-75
2023/07/22 04:49:08;;;;;;;;;;;13.80;99.90;;;;;;4956275;29;19918;-76
2023/07/22 04:51:34;;;;;;;;;;;13.80;99.90;;;;;;4956219;29;19918;-75
2023/07/22 04:53:59;;;;;;;;;;;13.80;99.90;;;;;;4957737;28;19969;-72
2023/07/22 04:56:25;;;;;;;;;;;13.80;99.90;;;;;;4957619;28;19974;-74
2023/07/22 04:58:50;;;;;;;;;;;13.80;99.90;;;;;;4956096;29;19922;-76
2023/07/22 05:01:16;;;;;;;;;;;13.80;99.90;;;;;;4956236;29;19918;-76
2023/07/22 05:03:42;;;;;;;;;;;13.90;99.90;;;;;;4956155;29;20341;-75
2023/07/22 05:06:08;;;;;;;;;;;13.90;99.90;;;;;;4955978;29;20392;-76
2023/07/22 05:08:34;;;;;;;;;;;13.90;99.90;;;;;;4957245;28;19918;-76
2023/07/22 05:11:00;;;;;;;;;;;13.90;99.90;;;;;;4955956;29;20346;-76
2023/07/22 05:13:25;;;;;;;;;;;14.00;99.90;;;;;;4956612;28;19924;-77
2023/07/22 05:15:51;;;;;;;;;;;13.90;99.90;;;;;;4956964;28;19918;-76
2023/07/22 05:18:16;;;;;;;;;;;14.00;99.90;;;;;;4957336;28;20287;-75
2023/07/22 05:20:42;;;;;;;;;;;14.00;99.90;;;;;;4939808;29;20388;-74
2023/07/22 05:23:07;;;;;;;;;;;14.00;99.90;;;;;;4955653;29;19919;-75
2023/07/22 05:25:33;;;;;;;;;;;14.00;99.90;;;;;;4955759;29;19918;-74
2023/07/22 05:27:58;;;;;;;;;;;14.00;99.90;;;;;;4956835;28;19958;-76
2023/07/22 05:30:24;;;;;;;;;;;14.00;99.90;;;;;;4956778;28;19929;-75
2023/07/22 05:32:53;;;;;;;;;;;14.00;99.90;;;;;;4956976;28;19925;-75
2023/07/22 05:35:18;;;;;;;;;;;14.10;99.90;;;;;;4956119;29;20330;-75
2023/07/22 05:37:44;;;;;;;;;;;14.10;99.90;;;;;;4956480;28;19919;-76
2023/07/22 05:40:10;;;;;;;;;;;14.10;99.90;;;;;;4956578;28;20009;-75
2023/07/22 05:42:36;;;;;;;;;;;14.10;99.90;;;;;;4955137;29;19918;-75
2023/07/22 05:45:02;;;;;;;;;;;14.10;99.90;;;;;;4956487;28;19918;-75
2023/07/22 05:47:27;;;;;;;;;;;14.10;99.90;;;;;;4955558;29;19989;-75
2023/07/22 05:49:53;;;;;;;;;;;14.10;99.90;;;;;;4955478;29;20362;-76
2023/07/22 05:52:18;;;;;;;;;;;14.20;99.90;;;;;;4956790;28;19973;-76
2023/07/22 05:54:44;;;;;;;;;;;14.20;99.90;;;;;;4955168;29;20417;-75
2023/07/22 05:57:10;;;;;;;;;;;14.20;99.90;;;;;;4955275;29;19969;-76
2023/07/22 05:59:36;;;;;;;;;;;14.20;99.90;;;;;;4955008;29;20342;-75
2023/07/22 06:02:02;;;;;;;;;;;14.30;99.90;;;;;;4956133;28;19969;-76
2023/07/22 06:04:28;;;;;;;;;;;14.30;99.90;;;;;;4954849;29;19926;-76
2023/07/22 06:06:53;;;;;;;;;;;14.30;99.90;;;;;;4954840;29;19918;-76
2023/07/22 06:09:20;;;;;;;;;;;14.30;99.90;;;;;;4956148;28;19925;-75
2023/07/22 06:11:46;;;;;;;;;;;14.40;99.90;;;;;;4955999;28;19922;-76
2023/07/22 06:14:11;;;;;;;;;;;14.40;99.90;;;;;;4956227;28;19972;-74
2023/07/22 06:16:37;;;;;;;;;;;14.50;99.90;;;;;;4954857;29;19985;-75
2023/07/22 06:19:03;;;;;;;;;;;14.50;99.90;;;;;;4954883;29;19938;-76
2023/07/22 06:21:29;;;;;;;;;;;14.50;99.90;;;;;;4955841;28;20286;-75
2023/07/22 06:23:54;;;;;;;;;;;14.50;99.90;;;;;;4954458;28;19925;-75
2023/07/22 06:26:20;;;;;;;;;;;14.60;99.90;;;;;;4954571;29;19918;-75
2023/07/22 06:28:45;;;;;;;;;;;14.60;99.90;;;;;;4955204;29;20076;-75
2023/07/22 06:31:11;;;;;;;;;;;14.70;99.90;;;;;;4954406;29;20433;-74
2023/07/22 06:33:36;;;;;;;;;;;14.70;99.90;;;;;;4955030;29;20306;-75
2023/07/22 06:36:02;;;;;;;;;;;14.70;99.90;;;;;;4954820;29;19922;-75
2023/07/22 06:38:28;;;;;;;;;;;14.70;99.90;;;;;;4955619;28;19923;-76
2023/07/22 06:40:54;;;;;;;;;;;14.80;99.90;;;;;;4954741;29;19926;-76
2023/07/22 06:43:20;;;;;;;;;;;14.80;99.90;;;;;;4954275;29;19919;-76
2023/07/22 06:45:45;;;;;;;;;;;14.80;99.90;;;;;;4954223;29;19918;-75
2023/07/22 06:48:11;;;;;;;;;;;14.80;99.90;;;;;;4954283;29;19918;-74
2023/07/22 06:50:36;;;;;;;;;;;14.90;99.90;;;;;;4956007;28;19918;-75
2023/07/22 06:53:03;;;;;;;;;;;14.90;99.90;;;;;;4955683;28;20263;-75
2023/07/22 06:55:29;;;;;;;;;;;14.90;99.90;;;;;;4955670;28;19918;-75
2023/07/22 06:57:57;;;;;;;;;;;15.00;99.90;;;;;;4954918;29;20458;-75
2023/07/22 07:00:23;;;;;;;;;;;15.00;99.90;;;;;;4955988;28;20021;-76
2023/07/22 07:02:49;;;;;;;;;;;15.00;99.90;;;;;;4954980;28;20390;-76
2023/07/22 07:05:16;;;;;;;;;;;15.10;99.90;;;;;;4953982;29;19918;-75
2023/07/22 07:07:42;;;;;;;;;;;15.10;99.90;;;;;;4954016;29;20347;-75
2023/07/22 07:10:08;;;;;;;;;;;15.20;99.90;;;;;;4955596;28;20009;-75
2023/07/22 07:12:33;;;;;;;;;;;15.20;99.90;;;;;;4953629;29;19925;-76
2023/07/22 07:14:59;;;;;;;;;;;15.30;99.90;;;;;;4953826;29;19918;-76
2023/07/22 07:17:25;;;;;;;;;;;15.30;99.90;;;;;;4953894;29;19918;-75
2023/07/22 07:19:50;;;;;;;;;;;15.30;99.90;;;;;;4955567;28;20017;-75
2023/07/22 07:22:16;;;;;;;;;;;15.30;99.90;;;;;;4955401;28;20385;-75
2023/07/22 07:24:41;;;;;;;;;;;15.40;99.90;;;;;;4953936;29;19924;-75
2023/07/22 07:27:07;;;;;;;;;;;15.40;99.90;;;;;;4955069;28;19918;-76
2023/07/22 07:29:32;;;;;;;;;;;15.50;99.90;;;;;;4955365;28;19929;-75
2023/07/22 07:31:58;;;;;;;;;;;15.60;99.90;;;;;;4953763;29;19926;-75
2023/07/22 07:34:24;;;;;;;;;;;15.60;99.90;;;;;;4953805;29;19918;-75
2023/07/22 07:36:49;;;;;;;;;;;15.70;99.90;;;;;;4956420;28;19969;-75
2023/07/22 07:39:15;;;;;;;;;;;15.70;99.90;;;;;;4957530;29;19930;-75
2023/07/22 07:41:40;;;;;;;;;;;15.70;99.90;;;;;;4957583;29;19918;-76
2023/07/22 07:44:06;;;;;;;;;;;15.80;99.90;;;;;;4958702;28;20456;-75
2023/07/22 07:46:31;;;;;;;;;;;15.90;99.90;;;;;;4957370;29;19922;-77
2023/07/22 07:49:00;;;;;;;;;;;15.90;99.90;;;;;;4957339;29;19918;-75
2023/07/22 07:51:27;;;;;;;;;;;16.00;99.90;;;;;;4958494;28;19918;-75
2023/07/22 07:53:53;;;;;;;;;;;16.10;99.90;;;;;;4958750;28;19981;-75
2023/07/22 07:56:19;;;;;;;;;;;16.10;99.90;;;;;;4956976;29;19918;-75
2023/07/22 07:58:45;;;;;;;;;;;16.20;99.90;;;;;;4956026;29;20279;-76
2023/07/22 08:01:11;;;;;;;;;;;16.20;99.90;;;;;;4957608;28;19957;-75
2023/07/22 08:03:38;;;;;;;;;;;16.10;99.90;;;;;;4958275;28;19950;-75
2023/07/22 08:06:04;;;;;;;;;;;16.10;99.90;;;;;;4956437;29;19989;-75
2023/07/22 08:08:30;;;;;;;;;;;16.10;99.90;;;;;;4958419;28;20365;-76
2023/07/22 08:10:58;;;;;;;;;;;16.10;99.90;;;;;;4956876;29;19918;-77
2023/07/22 08:13:24;;;;;;;;;;;16.00;99.90;;;;;;4957850;29;19918;-76
2023/07/22 08:15:49;;;;;;;;;;;16.00;99.90;;;;;;4958045;28;20381;-76
2023/07/22 08:18:15;;;;;;;;;;;15.90;99.90;;;;;;4956960;29;20393;-76
2023/07/22 08:20:41;;;;;;;;;;;15.80;99.90;;;;;;4957950;28;19925;-76
2023/07/22 08:23:07;;;;;;;;;;;15.80;99.90;;;;;;4958176;28;19918;-76
2023/07/22 08:25:32;;;;;;;;;;;15.70;99.90;;;;;;4956639;29;19929;-75
2023/07/22 08:27:58;;;;;;;;;;;15.60;99.90;;;;;;4956576;29;19925;-77
2023/07/22 08:30:23;;;;;;;;;;;15.60;99.90;;;;;;4956999;29;19930;-76
2023/07/22 08:32:49;;;;;;;;;;;15.50;99.90;;;;;;4957764;28;19925;-76
2023/07/22 08:35:17;;;;;;;;;;;15.50;99.90;;;;;;4956386;29;19926;-77
2023/07/22 08:37:43;;;;;;;;;;;15.50;99.90;;;;;;4957791;28;19929;-77
2023/07/22 08:40:08;;;;;;;;;;;15.50;99.90;;;;;;4956405;29;19922;-77
2023/07/22 08:42:35;;;;;;;;;;;15.50;99.90;;;;;;4955412;29;20762;-77
2023/07/22 08:45:01;;;;;;;;;;;15.50;99.90;;;;;;4958305;28;19925;-76
2023/07/22 08:47:28;;;;;;;;;;;15.60;99.90;;;;;;4970854;28;19918;-77
2023/07/22 08:49:57;;;;;;;;;;;15.50;99.90;;;;;;4957499;28;19922;-77
2023/07/22 08:52:23;;;;;;;;;;;15.60;99.90;;;;;;4955929;29;19922;-77
2023/07/22 08:54:49;;;;;;;;;;;15.60;99.90;;;;;;4955856;28;19933;-76
2023/07/22 08:57:14;;;;;;;;;;;15.50;99.90;;;;;;4955079;29;20378;-77
2023/07/22 08:59:41;;;;;;;;;;;15.60;99.90;;;;;;4953984;28;19974;-76
2023/07/22 09:02:10;;;;;;;;;;;15.60;99.90;;;;;;4955394;29;20370;-75
2023/07/22 09:04:35;;;;;;;;;;;15.60;99.90;;;;;;4956612;28;19928;-76
2023/07/22 09:07:01;;;;;;;;;;;15.60;99.90;;;;;;4955674;29;20008;-76
2023/07/22 09:09:27;;;;;;;;;;;15.60;99.90;;;;;;4955092;29;19964;-76
2023/07/22 09:11:53;;;;;;;;;;;15.60;99.90;;;;;;4955438;28;19934;-76
2023/07/22 09:14:19;;;;;;;;;;;15.50;99.90;;;;;;4955757;29;19929;-76
2023/07/22 09:16:44;;;;;;;;;;;15.60;99.90;;;;;;4955624;28;20378;-76
2023/07/22 09:19:10;;;;;;;;;;;15.60;99.90;;;;;;4955752;29;19980;-76
2023/07/22 09:21:35;;;;;;;;;;;15.50;99.90;;;;;;4955431;28;19966;-76
2023/07/22 09:24:01;;;;;;;;;;;15.60;99.90;;;;;;4955634;29;20037;-76
2023/07/22 09:26:26;;;;;;;;;;;15.60;99.90;;;;;;4955690;28;20422;-75
2023/07/22 09:28:56;;;;;;;;;;;15.60;99.90;;;;;;4956850;28;19930;-76
2023/07/22 09:31:22;;;;;;;;;;;15.50;99.90;;;;;;4956601;28;19922;-76
2023/07/22 09:33:48;;;;;;;;;;;15.50;99.90;;;;;;4956713;28;19919;-76
2023/07/22 09:36:14;;;;;;;;;;;15.50;99.90;;;;;;4955562;28;19945;-76
2023/07/22 09:38:39;;;;;;;;;;;15.40;99.90;;;;;;4955187;29;19922;-75
2023/07/22 09:41:05;;;;;;;;;;;15.40;99.90;;;;;;4956874;28;19919;-76
2023/07/22 09:43:31;;;;;;;;;;;15.40;99.90;;;;;;4956378;28;19949;-73
2023/07/22 09:46:05;;;;;;;;;;;15.40;99.90;;;;;;4955005;28;19918;-76
2023/07/22 09:48:38;;;;;;;;;;;15.40;99.90;;;;;;4955329;29;20005;-75
2023/07/22 09:51:04;;;;;;;;;;;15.40;99.90;;;;;;4955316;29;19918;-76
2023/07/22 09:53:29;;;;;;;;;;;15.30;99.90;;;;;;4955384;29;20239;-76
2023/07/22 09:55:55;;;;;;;;;;;15.30;99.90;;;;;;4954390;29;19925;-76
2023/07/22 09:58:24;;;;;;;;;;;15.30;99.90;;;;;;4955992;28;20290;-76
2023/07/22 10:00:50;;;;;;;;;;;15.30;99.90;;;;;;4954719;29;19923;-76
2023/07/22 10:03:15;;;;;;;;;;;15.30;99.90;;;;;;4954867;29;19922;-75
2023/07/22 10:05:41;;;;;;;;;;;15.40;99.90;;;;;;4939046;29;19918;-75
2023/07/22 10:08:07;;;;;;;;;;;15.40;99.90;;;;;;4956089;28;19918;-74
2023/07/22 10:10:40;;;;;;;;;;;15.40;99.90;;;;;;4954649;29;19918;-74
2023/07/22 10:13:06;;;;;;;;;;;15.40;99.90;;;;;;4954688;28;19965;-74
2023/07/22 10:15:34;;;;;;;;;;;15.40;99.90;;;;;;4954689;29;19922;-75
2023/07/22 10:18:00;;;;;;;;;;;15.30;99.90;;;;;;4954627;29;19918;-75
2023/07/22 10:20:25;;;;;;;;;;;15.30;99.90;;;;;;4954546;29;19977;-74
2023/07/22 10:22:51;;;;;;;;;;;15.30;99.90;;;;;;4954563;29;19922;-74
2023/07/22 10:25:18;;;;;;;;;;;15.30;99.90;;;;;;4954647;29;19918;-75
2023/07/22 10:27:44;;;;;;;;;;;15.30;99.90;;;;;;4954763;28;19996;-75
2023/07/22 10:30:10;;;;;;;;;;;15.20;99.90;;;;;;4954676;29;19919;-75
2023/07/22 10:32:38;;;;;;;;;;;15.20;99.90;;;;;;4954664;28;19918;-74
2023/07/22 10:35:03;;;;;;;;;;;15.20;99.90;;;;;;4954668;29;19922;-75
2023/07/22 10:37:30;;;;;;;;;;;15.10;99.90;;;;;;4954543;29;19941;-75
2023/07/22 10:40:19;;;;;;;;;;;15.10;99.90;;;;;;4955835;28;19923;-75
2023/07/22 10:42:58;;;;;;;;;;;15.10;99.90;;;;;;4946842;29;19966;-75
2023/07/22 10:45:25;;;;;;;;;;;15.20;99.90;;;;;;4954489;29;20429;-76
2023/07/22 10:48:23;;;;;;;;;;;15.20;99.90;;;;;;4954526;29;20066;-76
2023/07/22 10:50:50;;;;;;;;;;;15.20;99.90;;;;;;4922996;29;20425;-75
2023/07/22 10:53:24;;;;;;;;;;;15.20;99.90;;;;;;4954448;29;19973;-75
2023/07/22 10:56:08;;;;;;;;;;;15.20;99.90;;;;;;4955631;28;19918;-75
2023/07/22 10:58:55;;;;;;;;;;;15.20;99.90;;;;;;4954952;29;19929;-76
2023/07/22 11:01:30;;;;;;;;;;;15.20;99.90;;;;;;4955372;28;19973;-76
2023/07/22 11:04:08;;;;;;;;;;;15.20;99.90;;;;;;4954192;29;19919;-75
2023/07/22 11:06:34;;;;;;;;;;;15.30;99.90;;;;;;4954116;29;20025;-77
2023/07/22 11:09:00;;;;;;;;;;;15.30;99.90;;;;;;4954077;28;19958;-78
2023/07/22 11:11:44;;;;;;;;;;;15.30;99.90;;;;;;4956392;28;19961;-77
2023/07/22 11:14:13;;;;;;;;;;;15.20;99.90;;;;;;4958469;28;20358;-78
2023/07/22 11:16:39;;;;;;;;;;;15.30;99.90;;;;;;4958222;29;19941;-78
2023/07/22 11:19:05;;;;;;;;;;;15.30;99.90;;;;;;4942184;29;20386;-78
2023/07/22 11:21:30;;;;;;;;;;;15.30;99.90;;;;;;4957955;29;20016;-78
2023/07/22 11:23:55;;;;;;;;;;;15.30;99.90;;;;;;4958006;29;19961;-79
2023/07/22 11:26:21;;;;;;;;;;;15.30;99.90;;;;;;4958257;29;19988;-80
2023/07/22 11:28:47;;;;;;;;;;;15.20;99.90;;;;;;4958016;29;20014;-79
2023/07/22 11:31:12;;;;;;;;;;;15.20;99.90;;;;;;4957829;28;19922;-78
2023/07/22 11:33:39;;;;;;;;;;;15.10;99.90;;;;;;4957891;29;19922;-78
2023/07/22 11:36:05;;;;;;;;;;;15.10;99.90;;;;;;4957735;28;19918;-77
2023/07/22 11:38:30;;;;;;;;;;;15.00;99.90;;;;;;4959602;28;19930;-77
2023/07/22 11:40:56;;;;;;;;;;;15.00;99.90;;;;;;4957695;29;19919;-77
2023/07/22 11:43:22;;;;;;;;;;;15.00;99.90;;;;;;4958022;29;19925;-77
2023/07/22 11:45:47;;;;;;;;;;;15.00;99.90;;;;;;4957958;28;20281;-77
2023/07/22 11:48:13;;;;;;;;;;;15.00;99.90;;;;;;4957881;29;20009;-76
2023/07/22 11:50:38;;;;;;;;;;;15.00;99.90;;;;;;4957520;29;19968;-77
2023/07/22 11:53:04;;;;;;;;;;;15.10;99.90;;;;;;4957465;28;20009;-77
2023/07/22 11:55:29;;;;;;;;;;;15.00;99.90;;;;;;4957476;29;19976;-77
2023/07/22 11:57:55;;;;;;;;;;;15.00;99.90;;;;;;4957405;29;19930;-77
2023/07/22 12:00:21;;;;;;;;;;;15.10;99.90;;;;;;4957456;29;19926;-77
2023/07/22 12:02:46;;;;;;;;;;;15.10;99.90;;;;;;4958377;28;19985;-78
2023/07/22 12:05:19;;;;;;;;;;;15.10;99.90;;;;;;4957252;29;19919;-78
2023/07/22 12:07:45;;;;;;;;;;;15.10;99.90;;;;;;4957278;29;19965;-78
2023/07/22 12:10:11;;;;;;;;;;;15.20;99.90;;;;;;4958664;28;19922;-77
2023/07/22 12:12:41;;;;;;;;;;;15.20;99.90;;;;;;4958590;28;19919;-77
2023/07/22 12:15:15;;;;;;;;;;;15.20;99.90;;;;;;4958395;28;19918;-77
2023/07/22 12:17:56;;;;;;;;;;;15.20;99.90;;;;;;4957058;28;19918;-77
2023/07/22 12:20:26;;;;;;;;;;;15.30;99.90;;;;;;4957062;29;19927;-77
2023/07/22 12:22:51;;;;;;;;;;;15.30;99.90;;;;;;4957001;28;20343;-76
2023/07/22 12:25:17;;;;;;;;;;;15.30;99.90;;;;;;4958203;28;20001;-79
2023/07/22 12:27:43;;;;;;;;;;;15.30;99.90;;;;;;4957070;29;19923;-81
2023/07/22 12:30:08;;;;;;;;;;;15.30;99.90;;;;;;4956879;29;19918;-78
2023/07/22 12:32:34;;;;;;;;;;;15.40;99.90;;;;;;4958575;28;19919;-78
2023/07/22 12:35:00;;;;;;;;;;;15.40;99.90;;;;;;4956842;29;20408;-78
2023/07/22 12:37:25;;;;;;;;;;;15.40;99.90;;;;;;4956773;29;19918;-78
2023/07/22 12:39:51;;;;;;;;;;;15.40;99.90;;;;;;4957998;28;20397;-78
2023/07/22 12:42:16;;;;;;;;;;;15.40;99.90;;;;;;4957271;29;20274;-77
2023/07/22 12:44:42;;;;;;;;;;;15.40;99.90;;;;;;4957879;28;19919;-78
2023/07/22 12:47:08;;;;;;;;;;;15.40;99.90;;;;;;4973339;28;19918;-76
2023/07/22 12:49:33;;;;;;;;;;;15.40;99.90;;;;;;4956965;28;19928;-79
2023/07/22 12:52:03;;;;;;;;;;;15.40;99.90;;;;;;4956488;29;19918;-78
2023/07/22 12:54:30;;;;;;;;;;;15.40;99.90;;;;;;4956466;29;19918;-77
2023/07/22 12:56:56;;;;;;;;;;;15.40;99.90;;;;;;4956555;29;19918;-77
2023/07/22 12:59:21;;;;;;;;;;;15.30;99.90;;;;;;4956721;28;19931;-76
2023/07/22 13:01:47;;;;;;;;;;;15.30;99.90;;;;;;4957691;28;19918;-78
2023/07/22 13:04:12;;;;;;;;;;;15.30;99.90;;;;;;4957625;28;19922;-77
2023/07/22 13:06:38;;;;;;;;;;;15.40;99.90;;;;;;4940631;29;19918;-78
2023/07/22 13:09:04;;;;;;;;;;;15.40;99.90;;;;;;4956297;29;19957;-76
2023/07/22 13:11:29;;;;;;;;;;;15.50;99.90;;;;;;4956182;29;20025;-77
2023/07/22 13:13:55;;;;;;;;;;;15.50;99.90;;;;;;4956220;29;20008;-78
2023/07/22 13:16:20;;;;;;;;;;;15.60;99.90;;;;;;4956009;29;19933;-77
2023/07/22 13:18:46;;;;;;;;;;;15.70;99.90;;;;;;4956376;29;19989;-78
2023/07/22 13:21:11;;;;;;;;;;;15.80;99.90;;;;;;4955953;29;20334;-77
2023/07/22 13:23:37;;;;;;;;;;;15.90;99.90;;;;;;4956292;29;19942;-79
2023/07/22 13:26:02;;;;;;;;;;;16.00;99.90;;;;;;4957077;29;20318;-77
2023/07/22 13:28:28;;;;;;;;;;;16.00;99.90;;;;;;4955956;29;19962;-76
2023/07/22 13:30:53;;;;;;;;;;;16.10;99.90;;;;;;4956217;29;19919;-76
2023/07/22 13:33:19;;;;;;;;;;;16.20;99.90;;;;;;4955714;28;20308;-75
2023/07/22 13:35:44;;;;;;;;;;;16.20;99.90;;;;;;4955848;29;19922;-77
2023/07/22 13:38:10;;;;;;;;;;;16.30;99.90;;;;;;4954710;29;19989;-77
2023/07/22 13:40:35;;;;;;;;;;;16.50;99.90;;;;;;4955651;29;20264;-77
2023/07/22 13:43:01;;;;;;;;;;;16.60;99.90;;;;;;4955925;29;19922;-77
2023/07/22 13:45:27;;;;;;;;;;;16.80;99.90;;;;;;4955462;29;19965;-77
2023/07/22 13:47:52;;;;;;;;;;;16.90;99.90;;;;;;4955642;29;20076;-79
2023/07/22 13:50:18;;;;;;;;;;;17.00;99.90;;;;;;4955448;29;20013;-77
2023/07/22 13:52:44;;;;;;;;;;;17.00;99.90;;;;;;4955475;29;20016;-78
2023/07/22 13:55:10;;;;;;;;;;;17.00;99.90;;;;;;4955365;29;20334;-79
2023/07/22 13:57:35;;;;;;;;;;;17.00;99.90;;;;;;4955289;29;19918;-77
2023/07/22 14:00:01;;;;;;;;;;;17.00;99.90;;;;;;4957008;28;19946;-77
2023/07/22 14:02:26;;;;;;;;;;;17.10;99.90;;;;;;4955133;29;20362;-76
2023/07/22 14:04:52;;;;;;;;;;;17.10;99.90;;;;;;4955522;29;20012;-76
2023/07/22 14:07:17;;;;;;;;;;;17.10;99.90;;;;;;4955112;29;20535;-78
2023/07/22 14:09:43;;;;;;;;;;;17.10;99.90;;;;;;4956628;28;19926;-77
2023/07/22 14:12:10;;;;;;;;;;;17.10;99.90;;;;;;4956524;28;20016;-76
2023/07/22 14:14:36;;;;;;;;;;;17.20;99.90;;;;;;4954990;29;19918;-77
2023/07/22 14:17:01;;;;;;;;;;;17.20;99.90;;;;;;4954820;29;20021;-76
2023/07/22 14:19:28;;;;;;;;;;;17.20;99.90;;;;;;4955173;29;19918;-77
2023/07/22 14:21:53;;;;;;;;;;;17.10;99.90;;;;;;4954682;29;20374;-77
2023/07/22 14:24:19;;;;;;;;;;;17.10;99.90;;;;;;4954820;29;19925;-76
2023/07/22 14:26:44;;;;;;;;;;;17.00;99.90;;;;;;4955196;29;20024;-77
2023/07/22 14:29:10;;;;;;;;;;;17.00;99.90;;;;;;4955000;29;20327;-77
2023/07/22 14:31:35;;;;;;;;;;;16.90;99.90;;;;;;4955835;28;19918;-77
2023/07/22 14:34:01;;;;;;;;;;;16.80;99.90;;;;;;4954647;29;19919;-78
2023/07/22 14:36:26;;;;;;;;;;;16.80;99.90;;;;;;4954592;29;19922;-78
2023/07/22 14:38:52;;;;;;;;;;;16.70;99.90;;;;;;4954589;29;19918;-77
2023/07/22 14:41:18;;;;;;;;;;;16.60;99.90;;;;;;4954897;29;20279;-76
2023/07/22 14:43:43;;;;;;;;;;;16.60;99.90;;;;;;4954421;29;19922;-77
2023/07/22 14:46:09;;;;;;;;;;;16.50;99.90;;;;;;4954432;28;19934;-77
2023/07/22 14:48:34;;;;;;;;;;;16.40;99.90;;;;;;4955939;28;19918;-77
2023/07/22 14:51:00;;;;;;;;;;;16.50;99.90;;;;;;4954642;29;19934;-76
2023/07/22 14:53:26;;;;;;;;;;;16.40;99.90;;;;;;4954435;29;19922;-78
2023/07/22 14:55:51;;;;;;;;;;;16.30;99.90;;;;;;4954445;29;19924;-77
2023/07/22 14:58:17;;;;;;;;;;;16.30;99.90;;;;;;4954353;29;20369;-76
2023/07/22 15:00:42;;;;;;;;;;;16.20;99.90;;;;;;4954321;29;20008;-78
2023/07/22 15:03:08;;;;;;;;;;;16.20;99.90;;;;;;4954266;29;20010;-76
2023/07/22 15:05:33;;;;;;;;;;;16.20;99.90;;;;;;4954338;29;20005;-77
2023/07/22 15:07:59;;;;;;;;;;;16.10;99.90;;;;;;4955506;28;19969;-77
2023/07/22 15:10:25;;;;;;;;;;;16.10;99.90;;;;;;4954182;29;19919;-77
2023/07/22 15:12:50;;;;;;;;;;;16.00;99.90;;;;;;4954283;29;19918;-76
2023/07/22 15:15:17;;;;;;;;;;;16.00;99.90;;;;;;4954162;29;19918;-78
2023/07/22 15:17:43;;;;;;;;;;;16.00;99.90;;;;;;4953995;29;19926;-77
2023/07/22 15:20:08;;;;;;;;;;;16.00;99.90;;;;;;4954174;29;19918;-77
2023/07/22 15:22:34;;;;;;;;;;;16.00;99.90;;;;;;4954066;29;19925;-78
2023/07/22 15:24:59;;;;;;;;;;;16.00;99.90;;;;;;4954522;29;19918;-77
2023/07/22 15:27:25;;;;;;;;;;;15.90;99.90;;;;;;4954216;29;20392;-78
2023/07/22 15:29:50;;;;;;;;;;;16.00;99.90;;;;;;4955686;28;20286;-78
2023/07/22 15:32:16;;;;;;;;;;;15.90;99.90;;;;;;4954108;29;20289;-78
2023/07/22 15:34:41;;;;;;;;;;;16.00;99.90;;;;;;4954123;29;19918;-77
2023/07/22 15:37:07;;;;;;;;;;;16.00;99.90;;;;;;4955252;28;19922;-77
2023/07/22 15:39:34;;;;;;;;;;;16.00;99.90;;;;;;4954023;29;19969;-78
2023/07/22 15:41:59;;;;;;;;;;;16.00;99.90;;;;;;4953829;29;19919;-77
2023/07/22 15:44:27;;;;;;;;;;;16.00;99.90;;;;;;4954198;29;19925;-76
2023/07/22 15:46:53;;;;;;;;;;;16.10;99.90;;;;;;4953891;29;19925;-77
2023/07/22 15:49:18;;;;;;;;;;;16.10;99.90;;;;;;4953909;29;19918;-77
2023/07/22 15:51:44;;;;;;;;;;;16.10;99.90;;;;;;4954001;29;20013;-77
2023/07/22 15:54:09;;;;;;;;;;;16.10;99.90;;;;;;4937856;29;19919;-77
2023/07/22 15:56:36;;;;;;;;;;;16.10;99.90;;;;;;4955761;28;19938;-77
2023/07/22 15:59:02;;;;;;;;;;;16.10;99.90;;;;;;4957555;29;19919;-76
2023/07/22 16:01:28;;;;;;;;;;;16.10;99.90;;;;;;4957402;29;20370;-76
2023/07/22 16:03:54;;;;;;;;;;;16.10;99.90;;;;;;4957592;29;20358;-77
2023/07/22 16:06:19;;;;;;;;;;;16.10;99.90;;;;;;4958655;28;19918;-76
2023/07/22 16:08:45;;;;;;;;;;;16.20;99.90;;;;;;4957504;29;20033;-77
2023/07/22 16:11:10;;;;;;;;;;;16.20;99.90;;;;;;4957073;29;20005;-77
2023/07/22 16:13:36;;;;;;;;;;;16.20;99.90;;;;;;4957061;29;20000;-76
2023/07/22 16:16:01;;;;;;;;;;;16.10;99.90;;;;;;4957176;29;20010;-77
2023/07/22 16:18:27;;;;;;;;;;;16.20;99.90;;;;;;4957031;29;19973;-77
2023/07/22 16:20:53;;;;;;;;;;;16.20;99.90;;;;;;4956967;29;19970;-78
2023/07/22 16:23:19;;;;;;;;;;;16.20;99.90;;;;;;4973157;28;20028;-77
2023/07/22 16:25:45;;;;;;;;;;;16.20;99.90;;;;;;4956902;29;20020;-78
2023/07/22 16:28:10;;;;;;;;;;;16.20;99.90;;;;;;4956846;29;19918;-77
2023/07/22 16:30:36;;;;;;;;;;;16.20;99.90;;;;;;4958132;28;19918;-78
2023/07/22 16:33:01;;;;;;;;;;;16.20;99.90;;;;;;4957143;29;19918;-76
2023/07/22 16:35:28;;;;;;;;;;;16.20;99.90;;;;;;4956804;29;20279;-77
2023/07/22 16:37:54;;;;;;;;;;;16.20;99.90;;;;;;4958488;28;19922;-77
2023/07/22 16:40:20;;;;;;;;;;;16.20;99.90;;;;;;4957858;28;19919;-77
2023/07/22 16:42:45;;;;;;;;;;;16.20;99.90;;;;;;4956652;29;20030;-77
2023/07/22 16:45:11;;;;;;;;;;;16.20;99.90;;;;;;4956852;29;19972;-77
2023/07/22 16:47:36;;;;;;;;;;;16.20;99.90;;;;;;4956494;29;19925;-77
2023/07/22 16:50:02;;;;;;;;;;;16.20;99.90;;;;;;4956476;29;19926;-77
2023/07/22 16:52:28;;;;;;;;;;;16.20;99.90;;;;;;4956297;29;19918;-76
2023/07/22 16:54:53;;;;;;;;;;;16.20;99.90;;;;;;4956635;29;19922;-77
2023/07/22 16:57:19;;;;;;;;;;;16.20;99.90;;;;;;4956384;29;20276;-77
2023/07/22 16:59:44;;;;;;;;;;;16.20;99.90;;;;;;4956394;29;19934;-78
2023/07/22 17:02:10;;;;;;;;;;;16.20;99.90;;;;;;4956129;29;19918;-76
2023/07/22 17:04:35;;;;;;;;;;;16.20;99.90;;;;;;4957754;28;19925;-77
2023/07/22 17:07:01;;;;;;;;;;;16.20;99.90;;;;;;4956186;29;19974;-76
2023/07/22 17:09:27;;;;;;;;;;;16.20;99.90;;;;;;4955329;28;20282;-76
2023/07/22 17:11:52;;;;;;;;;;;16.10;99.90;;;;;;4956386;29;19918;-77
2023/07/22 17:14:18;;;;;;;;;;;16.20;99.90;;;;;;4956630;29;19918;-77
2023/07/22 17:16:43;;;;;;;;;;;16.20;99.90;;;;;;4955868;29;20033;-77
2023/07/22 17:19:09;;;;;;;;;;;16.20;99.90;;;;;;4955903;29;19958;-77
2023/07/22 17:21:34;;;;;;;;;;;16.20;99.90;;;;;;4957347;28;20013;-77
2023/07/22 17:24:00;;;;;;;;;;;16.20;99.90;;;;;;4955904;29;19918;-78
2023/07/22 17:26:25;;;;;;;;;;;16.20;99.90;;;;;;4955895;29;19918;-77
2023/07/22 17:28:51;;;;;;;;;;;16.20;99.90;;;;;;4955790;29;19918;-77
2023/07/22 17:31:17;;;;;;;;;;;16.20;99.90;;;;;;4955658;29;19918;-78
2023/07/22 17:33:42;;;;;;;;;;;16.20;99.90;;;;;;4955905;29;19969;-78
2023/07/22 17:36:08;;;;;;;;;;;16.20;99.90;;;;;;4955726;29;19918;-78
2023/07/22 17:38:33;;;;;;;;;;;16.10;99.90;;;;;;4955535;29;20017;-78
2023/07/22 17:40:59;;;;;;;;;;;16.10;99.90;;;;;;4955550;29;19918;-77
2023/07/22 17:43:24;;;;;;;;;;;16.10;99.90;;;;;;4955556;29;19918;-78
2023/07/22 17:45:50;;;;;;;;;;;16.00;99.90;;;;;;4955849;29;19961;-76
2023/07/22 17:48:15;;;;;;;;;;;16.00;99.90;;;;;;4955388;29;20318;-76
2023/07/22 17:50:43;;;;;;;;;;;16.00;99.90;;;;;;4956746;28;19922;-77
2023/07/22 17:53:09;;;;;;;;;;;16.00;99.90;;;;;;4956495;28;20433;-77
2023/07/22 17:55:35;;;;;;;;;;;16.00;99.90;;;;;;4955636;29;19918;-77
2023/07/22 17:58:00;;;;;;;;;;;16.00;99.90;;;;;;4955195;29;20282;-77
2023/07/22 18:00:26;;;;;;;;;;;16.00;99.90;;;;;;4955303;29;20267;-78
2023/07/22 18:02:51;;;;;;;;;;;16.00;99.90;;;;;;4956900;28;20235;-78
2023/07/22 18:05:17;;;;;;;;;;;16.00;99.90;;;;;;4956139;29;19941;-78
2023/07/22 18:07:42;;;;;;;;;;;16.00;99.90;;;;;;4955527;29;20377;-76
2023/07/22 18:10:08;;;;;;;;;;;16.00;99.90;;;;;;4955218;29;19918;-77
2023/07/22 18:12:34;;;;;;;;;;;16.00;99.90;;;;;;4954847;29;20088;-77